createdAt,value
2022-08-17T00:33:15.478Z,97.47
2022-08-17T00:35:34.076Z,97.47
2022-08-17T00:38:00.709Z,97.45
2022-08-17T00:40:27.206Z,97.69
2022-08-17T00:43:14.973Z,97.60
2022-08-17T00:45:42.474Z,97.81
2022-08-17T00:48:26.158Z,97.81
2022-08-17T00:51:01.574Z,98.29
2022-08-17T00:53:30.883Z,98.40
2022-08-17T00:56:01.783Z,98.21
2022-08-17T00:58:35.800Z,97.72
2022-08-17T01:01:04.552Z,97.99
2022-08-17T01:03:31.466Z,97.44
2022-08-17T01:06:01.470Z,97.27
2022-08-17T01:08:30.583Z,97.18
2022-08-17T01:11:02.218Z,97.63
2022-08-17T01:13:40.364Z,97.43
2022-08-17T01:16:16.046Z,97.17
2022-08-17T01:18:45.396Z,97.74
2022-08-17T01:21:22.345Z,97.61
2022-08-17T01:23:49.063Z,97.68
2022-08-17T01:26:16.263Z,98.04
2022-08-17T01:28:54.222Z,97.11
2022-08-17T01:31:24.186Z,96.89
2022-08-17T01:33:50.974Z,96.78
2022-08-17T01:36:18.124Z,96.96
2022-08-17T01:38:44.748Z,97.30
2022-08-17T01:41:15.532Z,97.51
2022-08-17T01:43:47.816Z,97.60
2022-08-17T01:46:18.672Z,97.67
2022-08-17T01:48:47.505Z,97.55
2022-08-17T01:51:15.804Z,97.06
2022-08-17T01:53:47.563Z,96.84
2022-08-17T01:56:18.135Z,97.09
2022-08-17T01:58:45.674Z,97.57
2022-08-17T02:01:14.758Z,97.58
2022-08-17T02:03:42.419Z,97.67
2022-08-17T02:06:27.484Z,97.72
2022-08-17T02:09:01.598Z,97.71
2022-08-17T02:11:28.882Z,97.48
2022-08-17T02:14:01.024Z,97.03
2022-08-17T02:16:29.599Z,97.18
2022-08-17T02:19:08.044Z,96.27
2022-08-17T02:21:36.404Z,97.17
2022-08-17T02:24:04.474Z,96.45
2022-08-17T02:26:31.177Z,96.42
2022-08-17T02:28:57.735Z,96.39
2022-08-17T02:31:24.307Z,96.27
2022-08-17T02:33:56.575Z,96.63
2022-08-17T02:36:27.570Z,97.68
2022-08-17T02:38:54.173Z,96.79
2022-08-17T02:41:20.720Z,96.82
2022-08-17T02:43:47.276Z,97.32
2022-08-17T02:46:13.822Z,96.88
2022-08-17T02:48:40.335Z,96.72
2022-08-17T02:51:06.994Z,97.19
2022-08-17T02:53:35.815Z,96.49
2022-08-17T02:56:03.838Z,96.71
2022-08-17T02:58:35.350Z,95.79
2022-08-17T03:01:06.340Z,96.47
2022-08-17T03:03:33.992Z,96.92
2022-08-17T03:06:01.238Z,97.30
2022-08-17T03:08:28.214Z,97.27
2022-08-17T03:10:54.723Z,97.06
2022-08-17T03:13:21.677Z,97.33
2022-08-17T03:15:49.255Z,97.20
2022-08-17T03:18:24.860Z,97.46
2022-08-17T03:20:58.523Z,97.07
2022-08-17T03:23:26.677Z,96.45
2022-08-17T03:25:55.587Z,96.14
2022-08-17T03:28:23.289Z,95.87
2022-08-17T03:30:51.207Z,97.09
2022-08-17T03:33:19.180Z,96.87
2022-08-17T03:35:46.126Z,96.41
2022-08-17T03:38:15.367Z,97.88
2022-08-17T03:40:58.504Z,98.09
2022-08-17T03:43:29.745Z,97.18
2022-08-17T03:46:28.452Z,97.12
2022-08-17T03:49:24.051Z,97.18
2022-08-17T03:52:09.766Z,97.77
2022-08-17T03:54:55.193Z,97.56
2022-08-17T03:57:21.783Z,97.48
2022-08-17T03:59:48.715Z,97.51
2022-08-17T04:02:34.531Z,97.69
2022-08-17T04:05:01.435Z,98.04
2022-08-17T04:07:30.375Z,97.91
2022-08-17T04:09:58.062Z,96.83
2022-08-17T04:12:25.967Z,97.82
2022-08-17T04:14:54.744Z,97.37
2022-08-17T04:17:24.408Z,97.48
2022-08-17T04:19:51.545Z,97.71
2022-08-17T04:22:30.996Z,97.39
2022-08-17T04:25:08.131Z,97.77
2022-08-17T04:27:34.849Z,97.14
2022-08-17T04:30:02.097Z,97.11
2022-08-17T04:33:05.406Z,97.59
2022-08-17T04:35:24.676Z,97.64
2022-08-17T04:37:51.750Z,97.74
2022-08-17T04:40:38.638Z,97.98
2022-08-17T04:43:11.819Z,97.66
2022-08-17T04:45:55.507Z,97.26
2022-08-17T04:48:36.296Z,97.42
2022-08-17T04:51:38.264Z,97.75
2022-08-17T04:54:21.899Z,97.76
2022-08-17T04:56:48.552Z,98.08
2022-08-17T04:59:21.159Z,98.49
2022-08-17T05:01:50.628Z,98.05
2022-08-17T05:04:33.845Z,97.78
2022-08-17T05:07:02.121Z,97.71
2022-08-17T05:09:29.084Z,97.16
2022-08-17T05:11:56.176Z,98.23
2022-08-17T05:14:33.025Z,98.77
2022-08-17T05:17:01.116Z,99.41
2022-08-17T05:19:28.623Z,99.08
2022-08-17T05:21:55.213Z,98.54
2022-08-17T05:24:42.543Z,98.46
2022-08-17T05:27:08.295Z,98.37
2022-08-17T05:29:35.407Z,97.94
2022-08-17T05:32:39.173Z,97.63
2022-08-17T05:35:00.396Z,97.27
2022-08-17T05:37:27.547Z,97.36
2022-08-17T05:39:54.394Z,97.55
2022-08-17T05:42:21.722Z,97.90
2022-08-17T05:44:48.549Z,98.16
2022-08-17T05:47:15.135Z,98.00
2022-08-17T05:49:41.673Z,97.75
2022-08-17T05:52:20.991Z,97.82
2022-08-17T05:54:53.146Z,98.26
2022-08-17T05:57:39.488Z,96.77
2022-08-17T06:00:20.303Z,96.89
2022-08-17T06:03:00.458Z,97.37
2022-08-17T06:05:26.955Z,96.31
2022-08-17T06:08:09.934Z,96.39
2022-08-17T06:10:57.373Z,97.05
2022-08-17T06:14:01.547Z,96.90
2022-08-17T06:16:35.476Z,95.59
2022-08-17T06:19:45.228Z,94.74
2022-08-17T06:22:16.712Z,94.61
2022-08-17T06:24:43.258Z,94.47
2022-08-17T06:27:22.459Z,94.40
2022-08-17T06:30:00.563Z,95.29
2022-08-17T06:32:27.404Z,95.63
2022-08-17T06:34:54.303Z,95.27
2022-08-17T06:37:42.288Z,95.25
2022-08-17T06:40:29.991Z,95.12
2022-08-17T06:43:05.984Z,95.03
2022-08-17T06:45:49.385Z,94.48
2022-08-17T06:48:24.788Z,94.44
2022-08-17T06:50:55.949Z,94.70
2022-08-17T06:53:41.138Z,94.84
2022-08-17T06:56:13.608Z,94.17
2022-08-17T06:58:43.365Z,94.44
2022-08-17T07:01:15.063Z,93.99
2022-08-17T07:03:46.342Z,93.25
2022-08-17T07:06:18.374Z,92.99
2022-08-17T07:08:53.198Z,92.56
2022-08-17T07:11:29.111Z,92.26
2022-08-17T07:14:04.806Z,92.35
2022-08-17T07:16:39.657Z,90.99
2022-08-17T07:19:07.450Z,91.06
2022-08-17T07:22:01.839Z,92.14
2022-08-17T07:24:43.323Z,90.96
2022-08-17T07:27:18.190Z,88.32
2022-08-17T07:29:58.389Z,87.53
2022-08-17T07:32:32.269Z,86.17
2022-08-17T07:35:11.670Z,85.43
2022-08-17T07:37:50.926Z,84.66
2022-08-17T07:40:27.136Z,85.10
2022-08-17T07:43:22.285Z,84.36
2022-08-17T07:46:23.794Z,83.42
2022-08-17T07:48:55.266Z,84.36
2022-08-17T07:51:25.180Z,83.96
2022-08-17T07:53:53.763Z,83.70
2022-08-17T07:56:55.474Z,83.20
2022-08-17T07:59:33.462Z,82.87
2022-08-17T08:02:05.228Z,83.69
2022-08-17T08:07:27.223Z,83.32
2022-08-17T08:10:04.925Z,82.79
2022-08-17T08:12:37.444Z,82.12
2022-08-17T08:15:10.161Z,82.00
2022-08-17T08:17:52.820Z,82.48
2022-08-17T08:20:52.028Z,81.59
2022-08-17T08:23:57.444Z,80.52
2022-08-17T08:26:43.372Z,79.96
2022-08-17T08:29:33.018Z,79.77
2022-08-17T08:32:20.496Z,78.88
2022-08-17T08:35:08.537Z,78.82
2022-08-17T08:37:54.001Z,79.28
2022-08-17T08:40:48.594Z,79.94
2022-08-17T08:43:38.799Z,81.24
2022-08-17T08:46:20.730Z,79.40
2022-08-17T08:49:12.115Z,79.54
2022-08-17T08:51:48.254Z,78.06
2022-08-17T08:54:26.681Z,77.74
2022-08-17T08:57:23.166Z,76.96
2022-08-17T09:00:00.295Z,75.22
2022-08-17T09:02:54.893Z,76.24
2022-08-17T09:05:49.407Z,75.68
2022-08-17T09:08:50.081Z,76.33
2022-08-17T09:11:36.525Z,76.21
2022-08-17T09:14:32.751Z,76.91
2022-08-17T09:17:29.112Z,76.69
2022-08-17T09:20:04.242Z,76.10
2022-08-17T09:22:39.198Z,75.41
2022-08-17T09:25:28.576Z,75.87
2022-08-17T09:28:05.822Z,74.43
2022-08-17T09:30:41.128Z,73.80
2022-08-17T09:33:11.590Z,72.82
2022-08-17T09:35:52.646Z,72.15
2022-08-17T09:38:38.074Z,71.35
2022-08-17T09:41:13.675Z,71.62
2022-08-17T09:44:09.608Z,71.05
2022-08-17T09:47:07.275Z,70.98
2022-08-17T09:49:42.860Z,71.31
2022-08-17T09:52:23.273Z,71.72
2022-08-17T09:54:52.362Z,72.25
2022-08-17T09:57:48.468Z,72.02
2022-08-17T10:00:27.657Z,72.01
2022-08-17T10:02:57.277Z,71.82
2022-08-17T10:05:41.328Z,71.65
2022-08-17T10:08:46.043Z,73.27
2022-08-17T10:11:56.160Z,73.91
2022-08-17T10:14:44.416Z,73.08
2022-08-17T10:17:33.310Z,73.09
2022-08-17T10:20:33.967Z,72.39
2022-08-17T10:23:26.894Z,72.65
2022-08-17T10:26:14.236Z,73.04
2022-08-17T10:28:50.462Z,73.61
2022-08-17T10:31:40.249Z,73.38
2022-08-17T10:34:27.010Z,72.58
2022-08-17T10:37:30.462Z,73.35
2022-08-17T10:40:15.158Z,73.43
2022-08-17T10:42:54.996Z,73.91
2022-08-17T10:45:29.483Z,73.69
2022-08-17T10:48:21.157Z,73.38
2022-08-17T10:50:49.713Z,74.03
2022-08-17T10:53:49.597Z,74.28
2022-08-17T10:56:18.720Z,72.79
2022-08-17T10:58:49.613Z,72.25
2022-08-17T11:01:17.490Z,71.76
2022-08-17T11:03:54.837Z,72.23
2022-08-17T11:06:35.098Z,71.13
2022-08-17T11:09:35.000Z,72.29
2022-08-17T11:12:37.694Z,72.15
2022-08-17T11:15:19.670Z,72.95
2022-08-17T11:18:32.756Z,72.09
2022-08-17T11:21:02.145Z,71.45
2022-08-17T11:23:51.258Z,70.31
2022-08-17T11:26:26.249Z,70.35
2022-08-17T11:28:59.555Z,70.49
2022-08-17T11:31:38.836Z,72.52
2022-08-17T11:34:06.340Z,73.42
2022-08-17T11:37:01.907Z,72.43
2022-08-17T11:39:31.225Z,72.47
2022-08-17T11:42:05.568Z,70.57
2022-08-17T11:44:52.512Z,71.35
2022-08-17T11:48:29.231Z,71.47
2022-08-17T11:51:28.687Z,70.79
2022-08-17T11:54:30.559Z,69.41
2022-08-17T11:56:51.797Z,68.07
2022-08-17T11:59:33.323Z,66.52
2022-08-17T12:02:31.525Z,66.05
2022-08-17T12:05:02.744Z,67.10
2022-08-17T12:07:33.066Z,67.53
2022-08-17T12:10:01.075Z,67.64
2022-08-17T12:12:33.413Z,68.46
2022-08-17T12:15:16.697Z,68.83
2022-08-17T12:17:53.039Z,69.46
2022-08-17T12:20:21.427Z,69.12
2022-08-17T12:22:54.895Z,69.82
2022-08-17T12:25:33.082Z,70.79
2022-08-17T12:28:06.570Z,70.53
2022-08-17T12:30:35.429Z,70.75
2022-08-17T12:33:02.506Z,72.10
2022-08-17T12:35:35.259Z,72.00
2022-08-17T12:38:04.471Z,71.17
2022-08-17T12:40:33.384Z,71.12
2022-08-17T12:43:06.778Z,71.42
2022-08-17T12:45:34.942Z,71.03
2022-08-17T12:48:11.107Z,73.24
2022-08-17T12:50:40.387Z,72.83
2022-08-17T12:53:16.415Z,74.50
2022-08-17T12:55:44.417Z,73.77
2022-08-17T12:58:15.131Z,73.91
2022-08-17T13:00:49.806Z,74.56
2022-08-17T13:03:20.155Z,73.25
2022-08-17T13:05:52.657Z,73.33
2022-08-17T13:08:41.227Z,72.90
2022-08-17T13:11:18.291Z,72.25
2022-08-17T13:13:50.795Z,70.23
2022-08-17T13:16:30.717Z,68.80
2022-08-17T13:19:09.124Z,70.19
2022-08-17T13:21:38.044Z,69.52
2022-08-17T13:24:10.604Z,68.32
2022-08-17T13:26:44.360Z,67.37
2022-08-17T13:29:26.955Z,68.01
2022-08-17T13:32:13.224Z,67.90
2022-08-17T13:35:15.445Z,67.16
2022-08-17T13:37:59.295Z,67.16
2022-08-17T13:40:53.179Z,67.45
2022-08-17T13:43:45.034Z,67.49
2022-08-17T13:46:25.165Z,66.85
2022-08-17T13:48:59.147Z,66.23
2022-08-17T13:51:29.729Z,65.03
2022-08-17T13:53:59.483Z,64.94
2022-08-17T13:56:46.739Z,64.44
2022-08-17T13:59:52.577Z,62.51
2022-08-17T14:02:13.474Z,62.98
2022-08-17T14:04:42.919Z,62.83
2022-08-17T14:07:11.443Z,63.45
2022-08-17T14:09:41.581Z,61.51
2022-08-17T14:12:16.243Z,62.61
2022-08-17T14:14:44.695Z,62.62
2022-08-17T14:17:12.308Z,61.85
2022-08-17T14:19:39.261Z,61.14
2022-08-17T14:22:11.583Z,61.71
2022-08-17T14:24:44.640Z,62.34
2022-08-17T14:27:12.028Z,61.35
2022-08-17T14:29:41.070Z,61.82
2022-08-17T14:32:28.967Z,61.59
2022-08-17T14:34:57.615Z,62.50
2022-08-17T14:37:26.346Z,62.88
2022-08-17T14:40:02.128Z,63.12
2022-08-17T14:42:32.631Z,61.37
2022-08-17T14:45:00.008Z,61.96
2022-08-17T14:47:29.617Z,62.51
2022-08-17T14:49:56.121Z,63.11
2022-08-17T14:52:22.857Z,64.75
2022-08-17T14:54:51.382Z,63.46
2022-08-17T14:57:34.168Z,63.85
2022-08-17T15:00:02.092Z,64.44
2022-08-17T15:02:30.691Z,65.53
2022-08-17T15:05:05.726Z,65.70
2022-08-17T15:07:32.365Z,65.49
2022-08-17T15:10:02.700Z,65.68
2022-08-17T15:12:34.111Z,66.81
2022-08-17T15:15:04.839Z,67.17
2022-08-17T15:17:43.971Z,66.04
2022-08-17T15:20:21.075Z,66.26
2022-08-17T15:22:55.402Z,65.85
2022-08-17T15:25:23.177Z,66.73
2022-08-17T15:27:50.141Z,66.85
2022-08-17T15:30:17.408Z,66.22
2022-08-17T15:32:50.953Z,67.32
2022-08-17T15:35:22.078Z,68.15
2022-08-17T15:38:06.295Z,67.48
2022-08-17T15:40:39.972Z,67.41
2022-08-17T15:43:13.879Z,68.00
2022-08-17T15:45:40.550Z,67.37
2022-08-17T15:48:07.982Z,67.60
2022-08-17T15:50:34.938Z,68.04
2022-08-17T15:53:02.156Z,67.24
2022-08-17T15:55:30.586Z,69.49
2022-08-17T15:57:57.171Z,67.54
2022-08-17T16:00:24.201Z,69.44
2022-08-17T16:03:45.399Z,68.06
2022-08-17T16:05:37.867Z,68.53
2022-08-17T16:08:07.442Z,67.47
2022-08-17T16:10:34.739Z,67.51
2022-08-17T16:13:03.111Z,67.99
2022-08-17T16:15:31.254Z,69.08
2022-08-17T16:17:57.805Z,68.65
2022-08-17T16:20:24.327Z,68.02
2022-08-17T16:22:51.312Z,68.03
2022-08-17T16:25:22.158Z,67.79
2022-08-17T16:27:53.392Z,67.97
2022-08-17T16:30:22.766Z,67.93
2022-08-17T16:32:51.707Z,68.15
2022-08-17T16:35:20.497Z,68.24
2022-08-17T16:37:47.681Z,68.10
2022-08-17T16:40:16.146Z,67.98
2022-08-17T16:42:43.367Z,69.21
2022-08-17T16:45:13.701Z,68.26
2022-08-17T16:47:41.869Z,67.27
2022-08-17T16:50:11.774Z,68.03
2022-08-17T16:52:39.363Z,67.59
2022-08-17T16:55:07.892Z,68.10
2022-08-17T16:57:35.810Z,66.64
2022-08-17T17:00:02.476Z,67.56
2022-08-17T17:02:37.943Z,67.35
2022-08-17T17:05:17.587Z,66.94
2022-08-17T17:08:03.763Z,67.02
2022-08-17T17:10:57.918Z,65.31
2022-08-17T17:13:30.600Z,63.57
2022-08-17T17:16:26.298Z,63.19
2022-08-17T17:19:08.092Z,63.23
2022-08-17T17:21:43.370Z,64.09
2022-08-17T17:24:26.131Z,63.70
2022-08-17T17:27:15.244Z,63.60
2022-08-17T17:29:58.179Z,63.08
2022-08-17T17:32:42.724Z,64.06
2022-08-17T17:35:16.759Z,64.47
2022-08-17T17:37:46.008Z,65.56
2022-08-17T17:40:20.540Z,66.64
2022-08-17T17:42:49.008Z,66.03
2022-08-17T17:45:25.995Z,65.96
2022-08-17T17:47:53.261Z,66.18
2022-08-17T17:50:23.927Z,65.75
2022-08-17T17:52:59.270Z,66.21
2022-08-17T17:55:37.702Z,66.26
2022-08-17T17:58:19.670Z,66.67
2022-08-17T18:01:13.342Z,67.06
2022-08-17T18:04:03.377Z,67.65
2022-08-17T18:07:22.957Z,67.55
2022-08-17T18:10:01.398Z,68.37
2022-08-17T18:12:43.181Z,69.10
2022-08-17T18:15:25.161Z,68.81
2022-08-17T18:18:17.191Z,69.52
2022-08-17T18:20:57.603Z,70.33
2022-08-17T18:23:28.165Z,70.09
2022-08-17T18:25:56.151Z,69.69
2022-08-17T18:28:27.779Z,71.26
2022-08-17T18:31:32.785Z,70.90
2022-08-17T18:34:43.716Z,70.50
2022-08-17T18:37:09.438Z,70.92
2022-08-17T18:39:38.293Z,71.30
2022-08-17T18:42:22.306Z,71.45
2022-08-17T18:44:52.991Z,72.12
2022-08-17T18:47:27.991Z,73.14
2022-08-17T18:50:15.307Z,72.70
2022-08-17T18:52:41.960Z,72.83
2022-08-17T18:55:12.330Z,73.33
2022-08-17T18:57:45.637Z,73.97
2022-08-17T19:00:36.156Z,74.34
2022-08-17T19:03:24.965Z,74.24
2022-08-17T19:05:57.428Z,74.07
2022-08-17T19:08:30.094Z,74.98
2022-08-17T19:11:02.617Z,75.67
2022-08-17T19:13:37.426Z,75.04
2022-08-17T19:16:27.398Z,76.49
2022-08-17T19:18:59.562Z,76.26
2022-08-17T19:21:40.409Z,75.75
2022-08-17T19:24:19.456Z,76.19
2022-08-17T19:26:58.921Z,75.94
2022-08-17T19:29:36.559Z,76.05
2022-08-17T19:32:06.544Z,76.97
2022-08-17T19:34:36.386Z,76.30
2022-08-17T19:37:07.558Z,76.58
2022-08-17T19:39:55.142Z,76.85
2022-08-17T19:42:31.130Z,76.87
2022-08-17T19:45:11.778Z,76.97
2022-08-17T19:48:00.524Z,77.38
2022-08-17T19:50:39.041Z,76.67
2022-08-17T19:53:19.210Z,76.98
2022-08-17T19:56:08.332Z,77.33
2022-08-17T19:58:53.698Z,77.08
2022-08-17T20:01:34.420Z,77.77
2022-08-17T20:04:18.782Z,77.69
2022-08-17T20:06:49.388Z,77.50
2022-08-17T20:09:21.446Z,77.97
2022-08-17T20:11:56.927Z,77.40
2022-08-17T20:14:58.442Z,78.21
2022-08-17T20:17:30.262Z,78.09
2022-08-17T20:20:02.548Z,77.68
2022-08-17T20:22:49.581Z,78.01
2022-08-17T20:25:30.566Z,78.58
2022-08-17T20:28:06.207Z,78.85
2022-08-17T20:30:41.042Z,78.26
2022-08-17T20:33:24.478Z,78.46
2022-08-17T20:36:02.453Z,79.22
2022-08-17T20:38:44.444Z,79.46
2022-08-17T20:41:23.034Z,79.28
2022-08-17T20:43:55.300Z,80.00
2022-08-17T20:46:37.415Z,80.27
2022-08-17T20:49:27.105Z,80.40
2022-08-17T20:52:02.548Z,80.00
2022-08-17T20:54:48.023Z,80.67
2022-08-17T20:57:32.990Z,80.60
2022-08-17T21:00:19.125Z,80.78
2022-08-17T21:02:49.562Z,80.77
2022-08-17T21:05:37.313Z,80.30
2022-08-17T21:08:17.044Z,80.80
2022-08-17T21:10:45.544Z,80.45
2022-08-17T21:13:15.600Z,79.74
2022-08-17T21:15:42.366Z,79.96
2022-08-17T21:18:18.922Z,79.78
2022-08-17T21:21:14.084Z,80.61
2022-08-17T21:24:02.072Z,80.79
2022-08-17T21:27:05.998Z,81.14
2022-08-17T21:29:33.947Z,81.70
2022-08-17T21:32:06.927Z,82.18
2022-08-17T21:34:44.022Z,81.60
2022-08-17T21:37:23.360Z,81.18
2022-08-17T21:40:13.166Z,81.89
2022-08-17T21:42:47.749Z,81.81
2022-08-17T21:45:28.934Z,82.54
2022-08-17T21:48:11.555Z,83.11
2022-08-17T21:50:41.518Z,83.51
2022-08-17T21:53:12.165Z,83.18
2022-08-17T21:55:39.100Z,83.10
2022-08-17T21:58:27.040Z,82.98
2022-08-17T22:01:21.013Z,83.18
2022-08-17T22:03:56.550Z,82.61
2022-08-17T22:06:29.874Z,82.58
2022-08-17T22:09:10.603Z,83.42
2022-08-17T22:11:54.647Z,83.51
2022-08-17T22:14:51.613Z,83.81
2022-08-17T22:17:26.376Z,84.41
2022-08-17T22:20:01.538Z,84.48
2022-08-17T22:22:30.810Z,84.97
2022-08-17T22:25:06.769Z,84.82
2022-08-17T22:27:48.943Z,85.20
2022-08-17T22:30:25.165Z,85.19
2022-08-17T22:32:52.061Z,86.35
2022-08-17T22:35:18.515Z,86.25
2022-08-17T22:37:45.579Z,85.38
2022-08-17T22:40:25.294Z,85.48
2022-08-17T22:42:52.439Z,85.89
2022-08-17T22:45:19.254Z,86.20
2022-08-17T22:47:48.873Z,86.22
2022-08-17T22:50:27.863Z,86.23
2022-08-17T22:53:18.998Z,86.01
2022-08-17T22:56:10.071Z,85.70
2022-08-17T22:59:07.545Z,85.75
2022-08-17T23:01:35.467Z,86.10
2022-08-17T23:04:04.157Z,85.88
2022-08-17T23:06:35.176Z,86.49
2022-08-17T23:09:04.391Z,86.41
2022-08-17T23:11:47.764Z,85.71
2022-08-17T23:14:19.258Z,86.38
2022-08-17T23:16:46.757Z,86.53
2022-08-17T23:19:16.645Z,86.40
2022-08-17T23:21:44.898Z,86.10
2022-08-17T23:24:17.329Z,86.49
2022-08-17T23:26:43.900Z,87.23
2022-08-17T23:29:10.675Z,87.29
2022-08-17T23:31:39.051Z,87.50
2022-08-17T23:34:09.331Z,87.65
2022-08-17T23:36:36.379Z,87.57
2022-08-17T23:39:04.599Z,87.45
2022-08-17T23:41:36.366Z,87.25
2022-08-17T23:44:04.925Z,87.23
2022-08-17T23:46:31.427Z,87.79
2022-08-17T23:48:58.111Z,87.70
2022-08-17T23:51:29.096Z,87.52
2022-08-17T23:54:05.779Z,88.08
2022-08-17T23:56:41.109Z,88.48
2022-08-17T23:59:07.618Z,88.39
